createdAt,value
2017-07-02T00:01:01.978Z,15.9
2017-07-02T00:02:04.619Z,16
2017-07-02T00:03:07.356Z,16.1
2017-07-02T00:04:09.964Z,16
2017-07-02T00:05:12.755Z,15.9
2017-07-02T00:06:15.498Z,15.8
2017-07-02T00:07:18.097Z,15.9
2017-07-02T00:08:20.670Z,15.9
2017-07-02T00:09:23.270Z,15.9
2017-07-02T00:10:25.951Z,15.9
2017-07-02T00:11:28.545Z,16.1
2017-07-02T00:12:31.178Z,15.9
2017-07-02T00:13:34.193Z,16
2017-07-02T00:14:36.809Z,16.2
2017-07-02T00:15:39.384Z,16.1
2017-07-02T00:16:42.006Z,16.1
2017-07-02T00:17:44.627Z,16.2
2017-07-02T00:18:47.370Z,16.3
2017-07-02T00:19:49.908Z,16.2
2017-07-02T00:20:52.552Z,16.1
2017-07-02T00:21:55.265Z,16.1
2017-07-02T00:22:57.876Z,16.2
2017-07-02T00:24:00.459Z,16.3
2017-07-02T00:25:03.011Z,16.4
2017-07-02T00:26:05.771Z,16.2
2017-07-02T00:27:08.459Z,16.4
2017-07-02T00:28:11.066Z,16.3
2017-07-02T00:29:13.679Z,16.2
2017-07-02T00:30:16.356Z,16.2
2017-07-02T00:31:19.000Z,16.2
2017-07-02T00:32:21.548Z,16.1
2017-07-02T00:33:24.131Z,16.2
2017-07-02T00:34:26.754Z,16.2
2017-07-02T00:35:29.334Z,16.3
2017-07-02T00:36:31.881Z,16.2
2017-07-02T00:37:34.436Z,16.1
2017-07-02T00:38:37.093Z,16.1
2017-07-02T00:39:39.652Z,16.1
2017-07-02T00:40:42.200Z,16.2
2017-07-02T00:41:44.837Z,16.2
2017-07-02T00:42:47.447Z,16.3
2017-07-02T00:43:50.068Z,16.2
2017-07-02T00:44:52.672Z,16.3
2017-07-02T00:45:55.273Z,16.2
2017-07-02T00:46:57.821Z,15.9
2017-07-02T00:48:00.430Z,15.7
2017-07-02T00:49:03.050Z,15.8
2017-07-02T00:50:05.710Z,15.7
2017-07-02T00:51:08.292Z,15.9
2017-07-02T00:52:10.882Z,15.9
2017-07-02T00:53:13.494Z,16
2017-07-02T00:54:16.114Z,16
2017-07-02T00:55:18.714Z,15.6
2017-07-02T00:56:21.319Z,16.1
2017-07-02T00:57:23.933Z,16.1
2017-07-02T00:58:26.545Z,16.1
2017-07-02T00:59:29.199Z,16
2017-07-02T01:00:31.889Z,16
2017-07-02T01:01:34.441Z,15.9
2017-07-02T01:02:37.206Z,15.9
2017-07-02T01:03:39.772Z,16
2017-07-02T01:04:42.325Z,15.9
2017-07-02T01:05:44.881Z,15.9
2017-07-02T01:06:47.521Z,15.9
2017-07-02T01:07:50.117Z,15.7
2017-07-02T01:08:52.728Z,15.8
2017-07-02T01:09:55.521Z,15.8
2017-07-02T01:11:00.609Z,15.4
2017-07-02T01:12:03.464Z,15.5
2017-07-02T01:13:06.214Z,15.4
2017-07-02T01:14:08.857Z,15.4
2017-07-02T01:15:11.568Z,15.5
2017-07-02T01:16:14.682Z,15.5
2017-07-02T01:17:17.281Z,15.4
2017-07-02T01:18:21.889Z,15.5
2017-07-02T01:19:24.506Z,15.5
2017-07-02T01:20:27.148Z,15.5
2017-07-02T01:21:29.712Z,15.5
2017-07-02T01:22:32.255Z,15.6
2017-07-02T01:23:35.176Z,15.7
2017-07-02T01:24:37.724Z,15.6
2017-07-02T01:25:40.363Z,15.6
2017-07-02T01:26:42.941Z,15.6
2017-07-02T01:27:45.542Z,15.6
2017-07-02T01:28:48.101Z,15.5
2017-07-02T01:29:50.676Z,15.6
2017-07-02T01:30:53.351Z,15.6
2017-07-02T01:31:55.939Z,15.5
2017-07-02T01:32:58.560Z,15.5
2017-07-02T01:34:01.173Z,15.4
2017-07-02T01:35:03.828Z,15.4
2017-07-02T01:36:06.547Z,15.4
2017-07-02T01:37:09.187Z,15.4
2017-07-02T01:38:11.757Z,15.3
2017-07-02T01:39:14.329Z,15.2
2017-07-02T01:40:16.945Z,15.3
2017-07-02T01:41:19.559Z,15.2
2017-07-02T01:42:22.089Z,15.4
2017-07-02T01:43:24.635Z,15.4
2017-07-02T01:44:27.261Z,15.2
2017-07-02T01:45:29.870Z,15.3
2017-07-02T01:46:32.413Z,15.1
2017-07-02T01:47:34.972Z,15.2
2017-07-02T01:48:37.635Z,15
2017-07-02T01:49:40.220Z,15.3
2017-07-02T01:50:42.806Z,15.2
2017-07-02T01:51:45.388Z,15.2
2017-07-02T01:52:47.935Z,15.2
2017-07-02T01:53:50.461Z,15.1
2017-07-02T01:54:53.048Z,15.1
2017-07-02T01:55:55.627Z,15.2
2017-07-02T01:56:58.203Z,15.2
2017-07-02T01:58:00.889Z,15.2
2017-07-02T01:59:03.444Z,15.1
2017-07-02T02:00:06.077Z,15.1
2017-07-02T02:01:08.640Z,15.1
2017-07-02T02:02:11.260Z,15
2017-07-02T02:03:13.856Z,15.1
2017-07-02T02:04:16.443Z,15.1
2017-07-02T02:05:18.977Z,15.1
2017-07-02T02:06:21.555Z,15
2017-07-02T02:07:24.159Z,15
2017-07-02T02:08:26.802Z,15
2017-07-02T02:09:29.429Z,15
2017-07-02T02:10:32.041Z,15
2017-07-02T02:11:34.925Z,15
2017-07-02T02:12:37.539Z,15.1
2017-07-02T02:13:40.128Z,15.1
2017-07-02T02:14:42.741Z,14.9
2017-07-02T02:15:45.374Z,14.9
2017-07-02T02:16:48.064Z,14.9
2017-07-02T02:17:50.649Z,14.9
2017-07-02T02:18:53.211Z,14.9
2017-07-02T02:19:55.892Z,15
2017-07-02T02:20:58.484Z,15
2017-07-02T02:22:01.082Z,14.8
2017-07-02T02:23:03.707Z,14.9
2017-07-02T02:24:06.309Z,14.9
2017-07-02T02:25:08.953Z,14.9
2017-07-02T02:26:11.538Z,14.7
2017-07-02T02:27:14.474Z,14.9
2017-07-02T02:28:17.142Z,14.9
2017-07-02T02:29:19.681Z,14.9
2017-07-02T02:30:22.362Z,14.9
2017-07-02T02:31:25.064Z,14.9
2017-07-02T02:32:27.780Z,14.9
2017-07-02T02:33:30.336Z,14.9
2017-07-02T02:34:32.913Z,15
2017-07-02T02:35:35.586Z,14.8
2017-07-02T02:36:38.386Z,14.9
2017-07-02T02:37:40.974Z,14.8
2017-07-02T02:38:43.523Z,14.9
2017-07-02T02:39:46.174Z,14.9
2017-07-02T02:40:48.783Z,14.9
2017-07-02T02:41:51.420Z,14.8
2017-07-02T02:42:53.987Z,14.7
2017-07-02T02:43:56.628Z,14.8
2017-07-02T02:44:59.206Z,14.7
2017-07-02T02:46:01.838Z,14.8
2017-07-02T02:47:05.709Z,14.8
2017-07-02T02:48:08.451Z,14.8
2017-07-02T02:49:11.052Z,14.8
2017-07-02T02:50:13.621Z,14.9
2017-07-02T02:51:16.241Z,15
2017-07-02T02:52:18.875Z,14.8
2017-07-02T02:53:21.421Z,14.8
2017-07-02T02:54:23.964Z,14.8
2017-07-02T02:55:26.584Z,14.8
2017-07-02T02:56:29.185Z,14.9
2017-07-02T02:57:31.797Z,14.8
2017-07-02T02:58:34.378Z,14.7
2017-07-02T02:59:36.991Z,14.7
2017-07-02T03:00:39.611Z,14.7
2017-07-02T03:01:42.221Z,14.6
2017-07-02T03:02:44.811Z,14.6
2017-07-02T03:03:47.476Z,14.6
2017-07-02T03:04:50.075Z,14.6
2017-07-02T03:05:52.613Z,14.5
2017-07-02T03:06:55.156Z,14.4
2017-07-02T03:07:57.744Z,14.4
2017-07-02T03:09:00.253Z,14.2
2017-07-02T03:10:02.910Z,14.2
2017-07-02T03:11:06.797Z,14.3
2017-07-02T03:12:09.372Z,14.2
2017-07-02T03:13:11.980Z,14.3
2017-07-02T03:14:14.581Z,14.3
2017-07-02T03:15:17.285Z,14.3
2017-07-02T03:16:19.859Z,14.3
2017-07-02T03:17:22.431Z,14.3
2017-07-02T03:18:25.001Z,14.3
2017-07-02T03:19:27.690Z,14.3
2017-07-02T03:20:30.247Z,14.3
2017-07-02T03:21:32.844Z,14.3
2017-07-02T03:22:35.420Z,14.2
2017-07-02T03:23:37.994Z,14.2
2017-07-02T03:24:40.558Z,14.2
2017-07-02T03:25:43.144Z,14.2
2017-07-02T03:26:45.820Z,14.3
2017-07-02T03:27:48.409Z,14.2
2017-07-02T03:28:50.967Z,14.2
2017-07-02T03:29:53.551Z,14.2
2017-07-02T03:30:56.577Z,14.2
2017-07-02T03:31:59.148Z,14.3
2017-07-02T03:33:01.762Z,14.3
2017-07-02T03:34:05.850Z,14.3
2017-07-02T03:35:08.639Z,14.3
2017-07-02T03:36:11.232Z,14.3
2017-07-02T03:37:13.923Z,14.3
2017-07-02T03:38:16.564Z,14.4
2017-07-02T03:39:19.115Z,14.4
2017-07-02T03:40:21.650Z,14.5
2017-07-02T03:41:24.178Z,14.5
2017-07-02T03:42:26.759Z,14.4
2017-07-02T03:43:29.380Z,14.3
2017-07-02T03:44:31.962Z,14.2
2017-07-02T03:45:34.494Z,14.2
2017-07-02T03:46:37.135Z,14.2
2017-07-02T03:47:39.732Z,14.3
2017-07-02T03:48:42.289Z,14.2
2017-07-02T03:49:44.882Z,14.2
2017-07-02T03:50:47.537Z,14.1
2017-07-02T03:51:50.114Z,14.1
2017-07-02T03:52:52.645Z,14.1
2017-07-02T03:53:55.219Z,14.3
2017-07-02T03:54:57.854Z,14.3
2017-07-02T03:56:00.449Z,14.4
2017-07-02T03:57:03.137Z,14.4
2017-07-02T03:58:07.969Z,14.4
2017-07-02T03:59:10.566Z,14.7
2017-07-02T04:00:14.066Z,14.9
2017-07-02T04:01:16.671Z,14.9
2017-07-02T04:02:19.237Z,14.7
2017-07-02T04:03:21.915Z,14.9
2017-07-02T04:04:24.483Z,15
2017-07-02T04:05:27.161Z,15
2017-07-02T04:06:29.763Z,15.1
2017-07-02T04:07:32.413Z,14.9
2017-07-02T04:08:34.955Z,14.9
2017-07-02T04:09:37.568Z,15
2017-07-02T04:10:40.217Z,15.1
2017-07-02T04:11:42.812Z,15
2017-07-02T04:12:45.761Z,14.8
2017-07-02T04:13:48.392Z,14.9
2017-07-02T04:14:50.970Z,15
2017-07-02T04:15:53.560Z,15
2017-07-02T04:16:56.269Z,15
2017-07-02T04:17:58.861Z,15
2017-07-02T04:19:01.657Z,15.1
2017-07-02T04:20:06.732Z,15.2
2017-07-02T04:21:09.366Z,14.6
2017-07-02T04:22:12.049Z,14.7
2017-07-02T04:23:14.760Z,14.9
2017-07-02T04:24:17.375Z,14.8
2017-07-02T04:25:19.930Z,14.9
2017-07-02T04:26:22.526Z,14.9
2017-07-02T04:27:25.138Z,15.1
2017-07-02T04:28:27.772Z,14.9
2017-07-02T04:29:30.383Z,14.7
2017-07-02T04:30:32.956Z,14.9
2017-07-02T04:31:35.535Z,14.8
2017-07-02T04:32:38.174Z,14.8
2017-07-02T04:33:40.752Z,14.7
2017-07-02T04:34:43.424Z,14.7
2017-07-02T04:35:45.999Z,14.8
2017-07-02T04:36:48.703Z,14.9
2017-07-02T04:37:51.318Z,15.3
2017-07-02T04:38:53.897Z,15.1
2017-07-02T04:39:56.502Z,15.3
2017-07-02T04:40:59.074Z,15.1
2017-07-02T04:42:01.700Z,15.1
2017-07-02T04:43:04.421Z,14.9
2017-07-02T04:44:08.151Z,14.9
2017-07-02T04:45:10.744Z,15.1
2017-07-02T04:46:13.315Z,15
2017-07-02T04:47:16.018Z,14.9
2017-07-02T04:48:18.656Z,14.8
2017-07-02T04:49:21.265Z,14.7
2017-07-02T04:50:23.846Z,14.7
2017-07-02T04:51:26.501Z,14.9
2017-07-02T04:52:29.044Z,15.1
2017-07-02T04:53:31.664Z,15.1
2017-07-02T04:54:34.323Z,14.8
2017-07-02T04:55:36.905Z,14.8
2017-07-02T04:56:39.508Z,14.8
2017-07-02T04:57:42.018Z,14.9
2017-07-02T04:58:44.609Z,15
2017-07-02T04:59:47.301Z,14.9
2017-07-02T05:00:49.870Z,14.8
2017-07-02T05:01:52.456Z,14.8
2017-07-02T05:02:55.096Z,14.9
2017-07-02T05:03:57.790Z,14.6
2017-07-02T05:05:00.364Z,14.7
2017-07-02T05:06:03.133Z,14.6
2017-07-02T05:07:07.150Z,14.7
2017-07-02T05:08:09.738Z,14.6
2017-07-02T05:09:12.374Z,14.7
2017-07-02T05:10:14.981Z,15
2017-07-02T05:11:17.594Z,15
2017-07-02T05:12:20.220Z,14.9
2017-07-02T05:13:22.788Z,14.8
2017-07-02T05:14:25.395Z,14.8
2017-07-02T05:15:28.036Z,15
2017-07-02T05:16:30.599Z,14.9
2017-07-02T05:17:33.165Z,14.7
2017-07-02T05:18:35.786Z,14.7
2017-07-02T05:19:38.411Z,14.7
2017-07-02T05:20:40.933Z,14.7
2017-07-02T05:21:43.540Z,14.8
2017-07-02T05:22:46.251Z,14.8
2017-07-02T05:23:48.920Z,14.7
2017-07-02T05:24:51.535Z,14.7
2017-07-02T05:25:54.153Z,14.8
2017-07-02T05:26:56.786Z,14.7
2017-07-02T05:27:59.720Z,14.8
2017-07-02T05:29:02.407Z,14.8
2017-07-02T05:30:06.265Z,14.9
2017-07-02T05:31:09.021Z,14.8
2017-07-02T05:32:11.700Z,14.8
2017-07-02T05:33:14.304Z,14.9
2017-07-02T05:34:16.999Z,15
2017-07-02T05:35:19.581Z,14.9
2017-07-02T05:36:22.173Z,14.9
2017-07-02T05:37:25.473Z,15
2017-07-02T05:38:28.101Z,14.8
2017-07-02T05:39:30.993Z,14.8
2017-07-02T05:40:33.773Z,14.8
2017-07-02T05:41:36.602Z,14.9
2017-07-02T05:42:39.501Z,15
2017-07-02T05:43:42.212Z,15.1
2017-07-02T05:44:44.825Z,14.9
2017-07-02T05:45:47.640Z,14.9
2017-07-02T05:46:50.415Z,15.1
2017-07-02T05:47:53.149Z,15.1
2017-07-02T05:48:55.736Z,15.4
2017-07-02T05:49:58.410Z,15.3
2017-07-02T05:51:01.100Z,15.3
2017-07-02T05:52:03.697Z,15.6
2017-07-02T05:53:08.006Z,15.7
2017-07-02T05:54:10.707Z,15.5
2017-07-02T05:55:13.367Z,15.5
2017-07-02T05:56:15.933Z,15.9
2017-07-02T05:57:18.635Z,15.7
2017-07-02T05:58:21.286Z,15.7
2017-07-02T05:59:23.929Z,15.9
2017-07-02T06:00:26.597Z,16.1
2017-07-02T06:01:29.211Z,15.9
2017-07-02T06:02:31.815Z,15.8
2017-07-02T06:03:34.390Z,15.7
2017-07-02T06:04:36.974Z,15.9
2017-07-02T06:05:39.540Z,15.7
2017-07-02T06:06:42.112Z,15.8
2017-07-02T06:07:44.655Z,15.6
2017-07-02T06:08:47.414Z,15.7
2017-07-02T06:09:50.143Z,15.8
2017-07-02T06:10:52.789Z,16
2017-07-02T06:11:55.458Z,15.8
2017-07-02T06:12:58.133Z,15.8
2017-07-02T06:14:00.952Z,15.7
2017-07-02T06:15:03.552Z,15.9
2017-07-02T06:16:06.203Z,16.4
2017-07-02T06:17:08.880Z,16.5
2017-07-02T06:18:11.665Z,16.4
2017-07-02T06:19:14.278Z,16.4
2017-07-02T06:20:16.938Z,16.5
2017-07-02T06:21:19.482Z,16.5
2017-07-02T06:22:22.147Z,16.9
2017-07-02T06:23:25.032Z,16.8
2017-07-02T06:24:27.851Z,16.9
2017-07-02T06:25:30.422Z,16.9
2017-07-02T06:26:33.026Z,17.2
2017-07-02T06:27:35.586Z,17.5
2017-07-02T06:28:38.223Z,17.5
2017-07-02T06:29:40.811Z,18
2017-07-02T06:30:43.411Z,18.4
2017-07-02T06:31:46.384Z,18.9
2017-07-02T06:32:49.042Z,18.5
2017-07-02T06:33:51.669Z,18.8
2017-07-02T06:34:54.215Z,18
2017-07-02T06:35:56.848Z,17.5
2017-07-02T06:36:59.426Z,17.5
2017-07-02T06:38:02.117Z,17.9
2017-07-02T06:39:04.671Z,17.9
2017-07-02T06:40:07.329Z,17.6
2017-07-02T06:41:09.999Z,17.8
2017-07-02T06:42:12.645Z,17.6
2017-07-02T06:43:15.260Z,18.2
2017-07-02T06:44:17.880Z,18.6
2017-07-02T06:45:20.538Z,18.7
2017-07-02T06:46:23.146Z,18.6
2017-07-02T06:47:25.830Z,18.5
2017-07-02T06:48:28.498Z,19
2017-07-02T06:49:31.337Z,19.6
2017-07-02T06:50:34.008Z,21.1
2017-07-02T06:51:36.658Z,22.3
2017-07-02T06:52:39.304Z,20.6
2017-07-02T06:53:42.353Z,21.7
2017-07-02T06:54:44.990Z,23.4
2017-07-02T06:55:47.847Z,21.4
2017-07-02T06:56:50.533Z,20.5
2017-07-02T06:57:53.228Z,20.4
2017-07-02T06:58:55.891Z,20.3
2017-07-02T06:59:58.601Z,20.6
2017-07-02T07:01:01.331Z,20.4
2017-07-02T07:02:04.024Z,21.1
2017-07-02T07:03:06.800Z,20.8
2017-07-02T07:04:09.462Z,20.5
2017-07-02T07:05:12.185Z,20.4
2017-07-02T07:06:14.782Z,20.3
2017-07-02T07:07:17.486Z,20.1
2017-07-02T07:08:20.057Z,20
2017-07-02T07:09:22.689Z,19.8
2017-07-02T07:10:25.688Z,19.7
2017-07-02T07:11:28.976Z,19.4
2017-07-02T07:12:31.587Z,19.5
2017-07-02T07:13:34.193Z,19.8
2017-07-02T07:14:36.923Z,19.5
2017-07-02T07:15:39.537Z,19.7
2017-07-02T07:16:42.118Z,19.6
2017-07-02T07:17:44.700Z,19.7
2017-07-02T07:18:47.351Z,19.8
2017-07-02T07:19:49.923Z,19.5
2017-07-02T07:20:52.439Z,19.6
2017-07-02T07:21:54.999Z,19.6
2017-07-02T07:22:57.667Z,19.7
2017-07-02T07:24:00.345Z,19.7
2017-07-02T07:25:03.003Z,19.6
2017-07-02T07:26:05.600Z,19.7
2017-07-02T07:27:09.161Z,19.1
2017-07-02T07:28:11.693Z,19.1
2017-07-02T07:29:14.274Z,18.9
2017-07-02T07:30:16.900Z,18.7
2017-07-02T07:31:19.565Z,19.3
2017-07-02T07:32:22.126Z,19.3
2017-07-02T07:33:24.680Z,19.3
2017-07-02T07:34:27.299Z,19.2
2017-07-02T07:35:30.180Z,19.3
2017-07-02T07:36:32.818Z,19.3
2017-07-02T07:37:35.368Z,19.2
2017-07-02T07:38:38.110Z,18.7
2017-07-02T07:39:40.722Z,18.8
2017-07-02T07:40:43.379Z,18.7
2017-07-02T07:41:45.974Z,18.3
2017-07-02T07:42:49.775Z,18.7
2017-07-02T07:43:52.348Z,18.8
2017-07-02T07:44:54.988Z,19
2017-07-02T07:45:57.630Z,19
2017-07-02T07:47:00.232Z,19.3
2017-07-02T07:48:03.017Z,19.3
2017-07-02T07:49:05.698Z,19
2017-07-02T07:50:08.407Z,19.2
2017-07-02T07:51:10.985Z,19.5
2017-07-02T07:52:13.538Z,19.6
2017-07-02T07:53:16.092Z,19.5
2017-07-02T07:54:18.787Z,19.3
2017-07-02T07:55:21.499Z,19.1
2017-07-02T07:56:24.098Z,19
2017-07-02T07:57:26.813Z,19.3
2017-07-02T07:58:29.679Z,19.5
2017-07-02T07:59:32.339Z,19.7
2017-07-02T08:00:35.008Z,19.5
2017-07-02T08:01:37.820Z,19.7
2017-07-02T08:02:40.630Z,19.8
2017-07-02T08:03:43.385Z,20.1
2017-07-02T08:04:46.581Z,20.1
2017-07-02T08:05:49.454Z,19.8
2017-07-02T08:06:52.140Z,20.3
2017-07-02T08:07:54.751Z,20.6
2017-07-02T08:08:57.442Z,20.6
2017-07-02T08:10:00.077Z,20.6
2017-07-02T08:11:02.790Z,20.9
2017-07-02T08:12:05.431Z,21.1
2017-07-02T08:13:08.177Z,20.6
2017-07-02T08:14:11.228Z,20.6
2017-07-02T08:15:14.034Z,21
2017-07-02T08:16:16.658Z,21.2
2017-07-02T08:17:19.356Z,21.1
2017-07-02T08:18:22.009Z,21.2
2017-07-02T08:19:24.627Z,21.3
2017-07-02T08:20:27.461Z,20.8
2017-07-02T08:21:30.078Z,20
2017-07-02T08:22:32.864Z,19.7
2017-07-02T08:23:35.486Z,19.4
2017-07-02T08:24:38.565Z,19.7
2017-07-02T08:25:41.219Z,19.5
2017-07-02T08:26:43.822Z,19.9
2017-07-02T08:27:46.649Z,19.9
2017-07-02T08:28:49.987Z,19.5
2017-07-02T08:29:53.029Z,19.2
2017-07-02T08:30:55.680Z,19.3
2017-07-02T08:31:58.440Z,19.1
2017-07-02T08:33:01.056Z,19
2017-07-02T08:34:03.738Z,18.3
2017-07-02T08:35:06.341Z,18.8
2017-07-02T08:36:09.082Z,19.2
2017-07-02T08:37:12.073Z,19.5
2017-07-02T08:38:14.776Z,19.1
2017-07-02T08:39:17.490Z,18.8
2017-07-02T08:40:20.098Z,18.9
2017-07-02T08:41:22.698Z,18.6
2017-07-02T08:42:25.275Z,18.6
2017-07-02T08:43:27.980Z,19.2
2017-07-02T08:44:30.572Z,18.6
2017-07-02T08:45:33.170Z,18.4
2017-07-02T08:46:35.807Z,18.6
2017-07-02T08:47:38.505Z,18.7
2017-07-02T08:48:41.178Z,19.1
2017-07-02T08:49:43.880Z,19.1
2017-07-02T08:50:46.539Z,18.7
2017-07-02T08:51:49.252Z,18.5
2017-07-02T08:52:52.004Z,18.3
2017-07-02T08:53:54.618Z,18.5
2017-07-02T08:54:57.452Z,18.8
2017-07-02T08:56:00.138Z,19.2
2017-07-02T08:57:02.738Z,19.4
2017-07-02T08:58:05.304Z,19.6
2017-07-02T08:59:07.943Z,19.4
2017-07-02T09:00:10.588Z,18.9
2017-07-02T09:01:13.421Z,18.8
2017-07-02T09:02:16.080Z,19
2017-07-02T09:03:18.873Z,19.3
2017-07-02T09:04:21.508Z,18.6
2017-07-02T09:05:24.109Z,18.4
2017-07-02T09:06:26.743Z,18.6
2017-07-02T09:07:29.375Z,18.3
2017-07-02T09:08:32.054Z,18
2017-07-02T09:09:35.123Z,18.7
2017-07-02T09:10:37.937Z,18.6
2017-07-02T09:11:40.528Z,18.5
2017-07-02T09:12:43.131Z,18.9
2017-07-02T09:13:45.769Z,18.7
2017-07-02T09:14:48.545Z,18.3
2017-07-02T09:15:51.160Z,18.1
2017-07-02T09:16:53.793Z,18.4
2017-07-02T09:17:56.415Z,18.3
2017-07-02T09:18:59.096Z,18.3
2017-07-02T09:20:01.806Z,19
2017-07-02T09:21:04.435Z,19.1
2017-07-02T09:22:07.145Z,19.3
2017-07-02T09:23:09.756Z,19.2
2017-07-02T09:24:12.403Z,19.3
2017-07-02T09:25:14.962Z,19.6
2017-07-02T09:26:17.671Z,19.5
2017-07-02T09:27:20.347Z,19.4
2017-07-02T09:28:22.933Z,19.2
2017-07-02T09:29:25.537Z,19.5
2017-07-02T09:30:28.197Z,19.4
2017-07-02T09:31:30.793Z,18.9
2017-07-02T09:32:33.821Z,18.9
2017-07-02T09:33:36.480Z,19
2017-07-02T09:34:39.247Z,19
2017-07-02T09:35:41.972Z,18.7
2017-07-02T09:36:44.605Z,19
2017-07-02T09:37:47.413Z,19.1
2017-07-02T09:38:50.071Z,19
2017-07-02T09:39:52.768Z,18.7
2017-07-02T09:40:55.346Z,19.2
2017-07-02T09:41:58.064Z,19.3
2017-07-02T09:43:01.498Z,19.2
2017-07-02T09:44:04.486Z,19.6
2017-07-02T09:45:07.193Z,19.5
2017-07-02T09:46:09.931Z,19.7
2017-07-02T09:47:12.621Z,19
2017-07-02T09:48:15.663Z,19
2017-07-02T09:49:18.536Z,19.3
2017-07-02T09:50:21.196Z,19.5
2017-07-02T09:51:23.815Z,19.6
2017-07-02T09:52:26.420Z,19.5
2017-07-02T09:53:29.118Z,19.7
2017-07-02T09:54:31.715Z,19.7
2017-07-02T09:55:34.398Z,19.4
2017-07-02T09:56:37.110Z,19.8
2017-07-02T09:57:39.857Z,19.7
2017-07-02T09:58:42.518Z,19.7
2017-07-02T09:59:45.351Z,19.4
2017-07-02T10:00:48.170Z,19.6
2017-07-02T10:01:50.778Z,19.6
2017-07-02T10:02:53.404Z,19.4
2017-07-02T10:03:56.087Z,19.7
2017-07-02T10:04:58.917Z,20
2017-07-02T10:06:01.686Z,19.9
2017-07-02T10:07:04.302Z,19.7
2017-07-02T10:08:07.650Z,19.6
2017-07-02T10:09:10.283Z,19.5
2017-07-02T10:10:13.009Z,19.5
2017-07-02T10:11:15.671Z,19.4
2017-07-02T10:12:18.361Z,19
2017-07-02T10:13:21.032Z,19.3
2017-07-02T10:14:23.710Z,19.5
2017-07-02T10:15:27.050Z,19.6
2017-07-02T10:16:29.790Z,18.8
2017-07-02T10:17:32.489Z,18.9
2017-07-02T10:18:35.276Z,19.2
2017-07-02T10:19:38.041Z,19.2
2017-07-02T10:20:40.696Z,18.8
2017-07-02T10:21:44.345Z,18.7
2017-07-02T10:22:47.007Z,18.7
2017-07-02T10:23:49.609Z,18.8
2017-07-02T10:24:52.861Z,18.9
2017-07-02T10:25:55.507Z,19.2
2017-07-02T10:26:58.302Z,19.3
2017-07-02T10:28:01.007Z,19
2017-07-02T10:29:03.625Z,19.2
2017-07-02T10:30:06.345Z,19.1
2017-07-02T10:31:09.083Z,19
2017-07-02T10:32:11.741Z,19
2017-07-02T10:33:14.478Z,19.1
2017-07-02T10:34:17.115Z,19.4
2017-07-02T10:35:20.111Z,19.5
2017-07-02T10:36:22.861Z,19.9
2017-07-02T10:37:25.632Z,20.5
2017-07-02T10:38:28.422Z,21.1
2017-07-02T10:39:31.221Z,21.4
2017-07-02T10:40:33.911Z,21.4
2017-07-02T10:41:36.561Z,20.6
2017-07-02T10:42:39.293Z,20.5
2017-07-02T10:43:41.933Z,20.5
2017-07-02T10:44:44.596Z,20.3
2017-07-02T10:45:47.325Z,19.9
2017-07-02T10:46:50.000Z,19.7
2017-07-02T10:47:52.621Z,20.3
2017-07-02T10:48:55.318Z,20.6
2017-07-02T10:49:58.039Z,20.1
2017-07-02T10:51:00.835Z,20.5
2017-07-02T10:52:03.643Z,20.2
2017-07-02T10:53:06.275Z,20.3
2017-07-02T10:54:09.014Z,20.9
2017-07-02T10:55:11.713Z,21.1
2017-07-02T10:56:14.388Z,20.9
2017-07-02T10:57:17.069Z,20.8
2017-07-02T10:58:19.734Z,20.8
2017-07-02T10:59:22.723Z,20.6
2017-07-02T11:00:25.417Z,20.6
2017-07-02T11:01:28.480Z,20.8
2017-07-02T11:02:31.256Z,20.8
2017-07-02T11:03:33.895Z,20.8
2017-07-02T11:04:36.591Z,20.9
2017-07-02T11:05:39.435Z,20.5
2017-07-02T11:06:42.610Z,20.7
2017-07-02T11:07:45.211Z,20.1
2017-07-02T11:08:48.046Z,20.1
2017-07-02T11:09:50.760Z,20.4
2017-07-02T11:10:54.038Z,20.1
2017-07-02T11:11:56.778Z,20.2
2017-07-02T11:12:59.538Z,19.9
2017-07-02T11:14:02.365Z,20.1
2017-07-02T11:15:05.117Z,19.5
2017-07-02T11:16:07.840Z,19.6
2017-07-02T11:17:10.501Z,19.7
2017-07-02T11:18:13.223Z,19.9
2017-07-02T11:19:15.966Z,20
2017-07-02T11:20:18.771Z,19.7
2017-07-02T11:21:21.591Z,19.8
2017-07-02T11:22:24.314Z,19.5
2017-07-02T11:23:26.965Z,19.6
2017-07-02T11:24:29.902Z,19.5
2017-07-02T11:25:32.629Z,19.6
2017-07-02T11:26:35.367Z,19.6
2017-07-02T11:27:38.206Z,19.3
2017-07-02T11:28:40.944Z,19.3
2017-07-02T11:29:43.598Z,18.9
2017-07-02T11:30:46.561Z,19.2
2017-07-02T11:31:49.436Z,19.1
2017-07-02T11:32:52.126Z,19.1
2017-07-02T11:33:54.881Z,19.2
2017-07-02T11:34:57.704Z,19.3
2017-07-02T11:36:00.395Z,19.3
2017-07-02T11:37:03.206Z,19.1
2017-07-02T11:38:05.853Z,19.3
2017-07-02T11:39:08.495Z,19.3
2017-07-02T11:40:11.161Z,19.4
2017-07-02T11:41:13.914Z,19.2
2017-07-02T11:42:16.538Z,19.3
2017-07-02T11:43:19.325Z,19.1
2017-07-02T11:44:22.097Z,18.9
2017-07-02T11:45:24.719Z,18.6
2017-07-02T11:46:27.369Z,18.4
2017-07-02T11:47:30.040Z,18.3
2017-07-02T11:48:34.724Z,18.2
2017-07-02T11:49:37.342Z,18.6
2017-07-02T11:50:39.998Z,18.7
2017-07-02T11:51:42.646Z,18.5
2017-07-02T11:52:45.312Z,18.4
2017-07-02T11:53:48.028Z,18.4
2017-07-02T11:54:50.685Z,18.4
2017-07-02T11:55:57.362Z,18.1
2017-07-02T11:57:00.019Z,17.8
2017-07-02T11:58:02.691Z,17.6
2017-07-02T11:59:05.338Z,17.6
2017-07-02T12:00:08.668Z,17.1
2017-07-02T12:01:11.381Z,17.4
2017-07-02T12:02:14.075Z,17.5
2017-07-02T12:03:16.755Z,17.4
2017-07-02T12:04:19.536Z,17.2
2017-07-02T12:05:22.172Z,17.2
2017-07-02T12:06:24.861Z,17.3
2017-07-02T12:07:27.795Z,17.5
2017-07-02T12:08:31.363Z,17.9
2017-07-02T12:09:34.019Z,18.2
2017-07-02T12:10:36.669Z,18.1
2017-07-02T12:11:39.385Z,17.9
2017-07-02T12:12:42.029Z,18.2
2017-07-02T12:13:44.676Z,17.9
2017-07-02T12:14:47.394Z,17.9
2017-07-02T12:15:50.009Z,17.9
2017-07-02T12:16:52.702Z,18.3
2017-07-02T12:17:56.012Z,18.4
2017-07-02T12:18:58.721Z,18.3
2017-07-02T12:20:01.649Z,18.4
2017-07-02T12:21:04.362Z,18.5
2017-07-02T12:22:06.985Z,18.4
2017-07-02T12:23:09.608Z,18.5
2017-07-02T12:24:12.323Z,18.4
2017-07-02T12:25:14.986Z,18.4
2017-07-02T12:26:17.720Z,18.7
2017-07-02T12:27:20.469Z,18.9
2017-07-02T12:28:23.219Z,19
2017-07-02T12:29:25.925Z,19
2017-07-02T12:30:28.937Z,18.8
2017-07-02T12:31:31.570Z,18.8
2017-07-02T12:32:34.487Z,18.8
2017-07-02T12:33:37.840Z,18.4
2017-07-02T12:34:40.542Z,18.4
2017-07-02T12:35:43.208Z,18.5
2017-07-02T12:36:45.855Z,18.3
2017-07-02T12:37:48.778Z,18.1
2017-07-02T12:38:51.486Z,18
2017-07-02T12:39:54.224Z,18.4
2017-07-02T12:40:57.712Z,18.5
2017-07-02T12:42:01.067Z,18.4
2017-07-02T12:43:03.652Z,18.3
2017-07-02T12:44:07.030Z,18.1
2017-07-02T12:45:09.767Z,18.1
2017-07-02T12:46:12.600Z,18.2
2017-07-02T12:47:15.361Z,18.1
2017-07-02T12:48:18.170Z,17.8
2017-07-02T12:49:20.989Z,17.6
2017-07-02T12:50:23.797Z,17.9
2017-07-02T12:51:26.458Z,17.6
2017-07-02T12:52:29.253Z,17.4
2017-07-02T12:53:31.949Z,17.1
2017-07-02T12:54:34.671Z,17.2
2017-07-02T12:55:37.377Z,17.5
2017-07-02T12:56:40.064Z,17.8
2017-07-02T12:57:42.770Z,17.9
2017-07-02T12:58:45.378Z,17.8
2017-07-02T12:59:48.291Z,17.6
2017-07-02T13:00:50.865Z,17.4
2017-07-02T13:01:53.505Z,17.5
2017-07-02T13:02:56.293Z,17.7
2017-07-02T13:03:59.116Z,17.3
2017-07-02T13:05:01.955Z,17.1
2017-07-02T13:06:05.380Z,17.2
2017-07-02T13:07:08.225Z,17.5
2017-07-02T13:08:10.874Z,17.5
2017-07-02T13:09:13.500Z,17.4
2017-07-02T13:10:16.189Z,17.3
2017-07-02T13:11:18.883Z,17.4
2017-07-02T13:12:21.568Z,17.4
2017-07-02T13:13:24.229Z,17.3
2017-07-02T13:14:26.898Z,17.6
2017-07-02T13:15:29.666Z,17.7
2017-07-02T13:16:32.357Z,17.6
2017-07-02T13:17:35.108Z,17.9
2017-07-02T13:18:37.833Z,18.1
2017-07-02T13:19:40.642Z,18
2017-07-02T13:20:43.285Z,17.8
2017-07-02T13:21:45.925Z,17.4
2017-07-02T13:22:48.657Z,17.4
2017-07-02T13:23:51.462Z,17.5
2017-07-02T13:24:54.421Z,17.6
2017-07-02T13:25:57.154Z,17.5
2017-07-02T13:27:00.113Z,17.6
2017-07-02T13:28:02.866Z,17.4
2017-07-02T13:29:05.621Z,17.5
2017-07-02T13:30:08.433Z,17.7
2017-07-02T13:31:11.101Z,17.7
2017-07-02T13:32:13.853Z,17.9
2017-07-02T13:33:16.514Z,18
2017-07-02T13:34:19.395Z,18
2017-07-02T13:35:22.354Z,17.8
2017-07-02T13:36:25.006Z,17.2
2017-07-02T13:37:27.663Z,17.4
2017-07-02T13:38:30.345Z,17.3
2017-07-02T13:39:33.081Z,17.1
2017-07-02T13:40:35.770Z,17.2
2017-07-02T13:41:38.605Z,17.4
2017-07-02T13:42:41.317Z,17.8
2017-07-02T13:43:43.941Z,18
2017-07-02T13:44:46.639Z,17.6
2017-07-02T13:45:49.461Z,17.5
2017-07-02T13:46:52.291Z,17.4
2017-07-02T13:47:54.939Z,17.5
2017-07-02T13:48:57.609Z,17.7
2017-07-02T13:50:00.897Z,17.6
2017-07-02T13:51:03.508Z,17.2
2017-07-02T13:52:06.181Z,17.1
2017-07-02T13:53:08.955Z,17.2
2017-07-02T13:54:11.644Z,17.1
2017-07-02T13:55:14.294Z,17.1
2017-07-02T13:56:16.931Z,17.1
2017-07-02T13:57:19.820Z,17
2017-07-02T13:58:22.467Z,17.3
2017-07-02T13:59:25.275Z,17.2
2017-07-02T14:00:27.969Z,17.4